Time;durP1;ratioP1;P1;durP2;ratioP2;P2;SDS_P1;SDS_P2;PMS_P1;PMS_P2;Temp;Humidity;BMP_temperature;BMP_pressure;BME280_temperature;BME280_humidity;BME280_pressure;Samples;Min_cycle;Max_cycle;Signal;HPM_P1;HPM_P2
2023/12/05 00:00:48;;;;;;;3.60;2.80;;;4.40;80.30;;;;;;4936825;29;20219;-84
2023/12/05 00:03:17;;;;;;;5.43;3.67;;;4.40;80.60;;;;;;4935792;29;20235;-83
2023/12/05 00:05:47;;;;;;;5.40;4.07;;;4.40;80.80;;;;;;4935938;29;20214;-83
2023/12/05 00:08:17;;;;;;;3.37;2.60;;;4.30;80.70;;;;;;4944710;29;20291;-83
2023/12/05 00:10:46;;;;;;;2.57;2.37;;;4.30;80.90;;;;;;4938540;29;20222;-84
2023/12/05 00:13:15;;;;;;;5.20;2.63;;;4.30;81.20;;;;;;4934657;29;20266;-85
2023/12/05 00:15:44;;;;;;;1.83;1.70;;;4.30;81.30;;;;;;4936998;29;20698;-82
2023/12/05 00:18:13;;;;;;;4.87;3.47;;;4.20;81.10;;;;;;4935017;29;20278;-84
2023/12/05 00:20:42;;;;;;;7.63;3.70;;;4.20;81.10;;;;;;4940856;29;20202;-81
2023/12/05 00:23:14;;;;;;;3.87;2.70;;;4.20;81.60;;;;;;4943282;29;20281;-84
2023/12/05 00:25:43;;;;;;;2.53;2.33;;;4.20;81.50;;;;;;4944192;29;20197;-83
2023/12/05 00:28:12;;;;;;;5.37;2.77;;;4.10;81.60;;;;;;4934607;29;20210;-81
2023/12/05 00:30:40;;;;;;;2.17;2.00;;;4.10;81.40;;;;;;4942200;29;20219;-83
2023/12/05 00:33:10;;;;;;;1.97;1.87;;;4.10;81.80;;;;;;4950386;29;20195;-83
2023/12/05 00:35:41;;;;;;;5.40;3.57;;;4.10;82.00;;;;;;4942228;28;20598;-84
2023/12/05 00:38:10;;;;;;;5.20;4.20;;;4.10;82.20;;;;;;4940141;29;20203;-84
2023/12/05 00:40:40;;;;;;;2.83;2.27;;;4.00;82.20;;;;;;4942141;29;20200;-83
2023/12/05 00:43:09;;;;;;;5.70;3.70;;;4.00;82.40;;;;;;4944346;29;20230;-84
2023/12/05 00:45:38;;;;;;;2.33;2.13;;;4.00;82.20;;;;;;4950022;29;20225;-85
2023/12/05 00:48:07;;;;;;;3.53;3.23;;;4.00;82.30;;;;;;4950379;28;20206;-85
2023/12/05 00:50:36;;;;;;;3.17;2.77;;;4.00;82.40;;;;;;4940680;29;20203;-84
2023/12/05 00:53:14;;;;;;;2.73;2.17;;;4.00;82.30;;;;;;4940733;29;20278;-85
2023/12/05 00:55:44;;;;;;;2.30;1.57;;;4.00;82.20;;;;;;4944222;29;20207;-83
2023/12/05 00:58:15;;;;;;;5.10;2.97;;;3.90;82.10;;;;;;4943195;28;20202;-84
2023/12/05 01:00:46;;;;;;;1.47;1.40;;;3.90;82.20;;;;;;4947640;29;20521;-84
2023/12/05 01:03:17;;;;;;;3.07;2.87;;;3.90;82.20;;;;;;4945193;29;20249;-83
2023/12/05 01:05:54;;;;;;;2.20;1.67;;;3.90;82.20;;;;;;4946224;29;20194;-84
2023/12/05 01:08:23;;;;;;;3.03;2.33;;;3.90;82.20;;;;;;4945250;29;20194;-84
2023/12/05 01:10:56;;;;;;;1.57;1.47;;;3.90;82.40;;;;;;4941323;29;20235;-82
2023/12/05 01:13:26;;;;;;;5.40;1.87;;;3.90;82.50;;;;;;4941734;29;20538;-83
2023/12/05 01:15:55;;;;;;;6.23;3.07;;;3.90;82.50;;;;;;4949034;29;20565;-83
2023/12/05 01:18:24;;;;;;;6.50;3.60;;;3.80;82.40;;;;;;4941889;29;20278;-84
2023/12/05 01:20:55;;;;;;;1.87;1.77;;;3.80;82.50;;;;;;4948709;29;20273;-84
2023/12/05 01:23:25;;;;;;;3.33;1.73;;;3.80;82.50;;;;;;4938297;29;20227;-84
2023/12/05 01:25:55;;;;;;;1.47;1.37;;;3.80;82.40;;;;;;4940699;29;20223;-84
2023/12/05 01:28:25;;;;;;;3.73;2.80;;;3.80;82.40;;;;;;4942546;29;20259;-84
2023/12/05 01:30:54;;;;;;;3.00;2.60;;;3.80;82.50;;;;;;4945783;29;20567;-83
2023/12/05 01:33:23;;;;;;;2.70;2.50;;;3.80;82.40;;;;;;4945988;29;20371;-82
2023/12/05 01:35:51;;;;;;;2.33;2.20;;;3.70;82.30;;;;;;4947727;28;20209;-85
2023/12/05 01:38:20;;;;;;;4.73;3.17;;;3.70;82.20;;;;;;4946085;29;20277;-84
2023/12/05 01:40:50;;;;;;;2.00;1.90;;;3.70;82.20;;;;;;4946948;29;20187;-84
2023/12/05 01:43:24;;;;;;;3.20;2.90;;;3.70;82.20;;;;;;4943542;29;20237;-84
2023/12/05 01:45:54;;;;;;;1.80;1.70;;;3.70;82.30;;;;;;4948846;28;20681;-84
2023/12/05 01:48:24;;;;;;;2.37;2.20;;;3.60;82.70;;;;;;4940572;29;20710;-84
2023/12/05 01:50:55;;;;;;;2.87;2.63;;;3.60;82.30;;;;;;4940357;29;20198;-82
2023/12/05 01:53:26;;;;;;;2.60;2.40;;;3.60;82.50;;;;;;4940088;29;20231;-84
2023/12/05 01:55:55;;;;;;;4.33;2.57;;;3.60;82.40;;;;;;4942970;29;21363;-83
2023/12/05 01:58:28;;;;;;;11.07;3.17;;;3.60;82.30;;;;;;4946279;29;20244;-83
2023/12/05 02:00:59;;;;;;;1.57;1.47;;;3.60;82.30;;;;;;4947039;29;20210;-83
2023/12/05 02:03:28;;;;;;;1.80;1.70;;;3.50;82.90;;;;;;4938722;28;20258;-82
2023/12/05 02:05:59;;;;;;;6.30;2.93;;;3.50;82.90;;;;;;4941640;29;20267;-84
2023/12/05 02:08:29;;;;;;;6.03;2.27;;;3.50;83.20;;;;;;4938403;29;20242;-83
2023/12/05 02:10:58;;;;;;;2.20;2.00;;;3.50;83.20;;;;;;4941408;29;20666;-85
2023/12/05 02:13:33;;;;;;;1.60;1.50;;;3.40;83.50;;;;;;4935133;29;20290;-83
2023/12/05 02:16:08;;;;;;;2.87;2.63;;;3.40;83.60;;;;;;4938572;29;20207;-84
2023/12/05 02:18:44;;;;;;;2.40;2.17;;;3.40;83.70;;;;;;4940582;29;20210;-83
2023/12/05 02:21:20;;;;;;;3.03;2.73;;;3.40;83.60;;;;;;4947648;29;20228;-84
2023/12/05 02:24:16;;;;;;;2.03;1.93;;;3.40;83.50;;;;;;4945000;29;20679;-83
2023/12/05 02:26:58;;;;;;;1.83;1.73;;;3.40;84.40;;;;;;4937934;29;20210;-84
2023/12/05 02:29:30;;;;;;;0.70;0.70;;;3.40;84.50;;;;;;4941039;29;20199;-83
2023/12/05 02:31:59;;;;;;;3.43;3.13;;;3.40;84.50;;;;;;4940024;29;20275;-83
2023/12/05 02:34:28;;;;;;;3.17;2.77;;;3.40;84.70;;;;;;4937305;29;20663;-83
2023/12/05 02:37:07;;;;;;;2.00;1.87;;;3.40;85.40;;;;;;4937178;29;20202;-85
2023/12/05 02:39:46;;;;;;;3.57;2.33;;;3.40;85.80;;;;;;4936971;29;20243;-84
2023/12/05 02:42:21;;;;;;;4.20;3.40;;;3.40;85.50;;;;;;4941088;29;20222;-83
2023/12/05 02:44:54;;;;;;;1.13;1.07;;;3.40;85.50;;;;;;4936087;29;20202;-84
2023/12/05 02:47:29;;;;;;;6.33;2.40;;;3.50;86.10;;;;;;4938877;29;20207;-84
2023/12/05 02:50:03;;;;;;;1.30;1.30;;;3.50;86.40;;;;;;4937639;29;20203;-85
2023/12/05 02:52:33;;;;;;;1.50;1.40;;;3.50;86.60;;;;;;4946211;29;20194;-84
2023/12/05 02:55:06;;;;;;;4.30;2.40;;;3.50;86.90;;;;;;4941858;28;20199;-85
2023/12/05 02:57:34;;;;;;;6.33;3.30;;;3.50;87.20;;;;;;4940902;29;20816;-84
2023/12/05 03:00:12;;;;;;;10.60;4.03;;;3.50;87.70;;;;;;4943783;29;20719;-84
2023/12/05 03:02:42;;;;;;;1.90;1.80;;;3.50;88.00;;;;;;4938682;29;20243;-85
2023/12/05 03:05:12;;;;;;;2.23;2.07;;;3.50;88.00;;;;;;4937403;29;20219;-85
2023/12/05 03:07:40;;;;;;;2.20;2.00;;;3.50;88.50;;;;;;4939791;29;20206;-85
2023/12/05 03:10:10;;;;;;;3.43;2.50;;;3.60;89.00;;;;;;4937280;29;20195;-83
2023/12/05 03:12:38;;;;;;;2.27;2.10;;;3.50;89.80;;;;;;4942458;29;20203;-84
2023/12/05 03:15:10;;;;;;;2.77;2.57;;;3.50;90.00;;;;;;4940562;29;20681;-85
2023/12/05 03:17:39;;;;;;;2.00;1.90;;;3.60;90.20;;;;;;4940142;29;20195;-86
2023/12/05 03:20:10;;;;;;;9.55;3.33;;;3.50;90.40;;;;;;4935136;29;20479;-85
2023/12/05 03:22:39;;;;;;;5.80;3.70;;;3.60;90.30;;;;;;4939124;29;20238;-85
2023/12/05 03:25:09;;;;;;;4.63;2.70;;;3.60;90.50;;;;;;4939588;29;20209;-83
2023/12/05 03:27:38;;;;;;;3.80;2.73;;;3.60;90.80;;;;;;4935247;29;20253;-86
2023/12/05 03:30:12;;;;;;;3.80;3.47;;;3.60;90.70;;;;;;4935869;29;20290;-82
2023/12/05 03:32:44;;;;;;;4.67;3.30;;;3.70;90.70;;;;;;4934867;29;20497;-82
2023/12/05 03:35:13;;;;;;;6.23;4.77;;;3.70;90.90;;;;;;4936922;29;20646;-85
2023/12/05 03:37:42;;;;;;;3.93;3.50;;;3.70;91.10;;;;;;4937986;29;20203;-85
2023/12/05 03:40:11;;;;;;;2.60;2.40;;;3.80;91.00;;;;;;4937111;29;20207;-84
2023/12/05 03:42:42;;;;;;;2.30;2.20;;;3.80;90.80;;;;;;4936656;29;20250;-84
2023/12/05 03:45:13;;;;;;;4.67;4.27;;;3.80;91.10;;;;;;4938333;29;20208;-84
2023/12/05 03:47:44;;;;;;;2.77;2.33;;;3.90;91.00;;;;;;4945590;29;20210;-84
2023/12/05 03:50:13;;;;;;;2.10;2.00;;;3.90;90.80;;;;;;4942324;29;20254;-83
2023/12/05 03:52:42;;;;;;;1.77;1.67;;;3.90;90.90;;;;;;4941895;29;20292;-82
2023/12/05 03:55:11;;;;;;;1.20;1.17;;;3.90;90.80;;;;;;4945450;29;20199;-83
2023/12/05 03:57:39;;;;;;;2.17;2.03;;;3.90;90.90;;;;;;4942536;29;20197;-85
2023/12/05 04:00:10;;;;;;;2.07;1.90;;;3.90;91.20;;;;;;4938828;29;20198;-85
2023/12/05 04:02:40;;;;;;;3.67;2.33;;;4.00;91.10;;;;;;4937296;29;20243;-84
2023/12/05 04:05:11;;;;;;;3.60;3.30;;;4.00;90.90;;;;;;4940856;29;20212;-83
2023/12/05 04:07:42;;;;;;;20.70;2.70;;;4.00;91.00;;;;;;4936058;29;20848;-83
2023/12/05 04:10:12;;;;;;;5.73;2.83;;;4.00;91.00;;;;;;4938606;29;20572;-83
2023/12/05 04:12:41;;;;;;;3.40;2.77;;;4.10;91.20;;;;;;4938447;29;20196;-83
2023/12/05 04:15:10;;;;;;;1.83;1.73;;;4.10;91.00;;;;;;4938827;29;20221;-82
2023/12/05 04:17:41;;;;;;;3.80;2.80;;;4.10;91.00;;;;;;4940320;29;20478;-84
2023/12/05 04:20:10;;;;;;;4.03;3.47;;;4.20;90.90;;;;;;4935686;29;20208;-83
2023/12/05 04:22:42;;;;;;;2.20;2.10;;;4.20;91.10;;;;;;4936391;29;20203;-83
2023/12/05 04:25:12;;;;;;;1.23;1.23;;;4.20;91.00;;;;;;4944547;29;20212;-84
2023/12/05 04:27:41;;;;;;;2.37;2.17;;;4.30;90.90;;;;;;4941259;29;20214;-83
2023/12/05 04:30:12;;;;;;;5.33;3.10;;;4.30;90.90;;;;;;4939319;28;20213;-81
2023/12/05 04:32:42;;;;;;;1.00;1.00;;;4.30;90.70;;;;;;4936363;29;20281;-85
2023/12/05 04:35:11;;;;;;;1.50;1.40;;;4.40;90.80;;;;;;4941922;29;20203;-81
2023/12/05 04:37:46;;;;;;;1.57;1.47;;;4.40;90.80;;;;;;4938038;29;20195;-83
2023/12/05 04:40:16;;;;;;;9.90;3.37;;;4.40;90.70;;;;;;4940972;29;20210;-83
2023/12/05 04:42:51;;;;;;;3.17;2.90;;;4.50;90.60;;;;;;4943171;29;20315;-83
2023/12/05 04:45:20;;;;;;;2.50;2.30;;;4.60;90.60;;;;;;4940144;29;20658;-84
2023/12/05 04:47:51;;;;;;;3.73;3.43;;;4.60;90.80;;;;;;4938249;29;20196;-83
2023/12/05 04:50:20;;;;;;;2.13;1.53;;;4.60;90.80;;;;;;4938977;29;20670;-83
2023/12/05 04:52:49;;;;;;;1.80;1.70;;;4.70;90.70;;;;;;4937666;29;20207;-84
2023/12/05 04:55:18;;;;;;;3.67;2.07;;;4.70;90.70;;;;;;4936381;29;20206;-83
2023/12/05 04:57:46;;;;;;;1.20;1.10;;;4.80;90.70;;;;;;4937541;29;20207;-82
2023/12/05 05:00:16;;;;;;;1.33;1.30;;;4.80;90.60;;;;;;4937955;29;20188;-82
2023/12/05 05:02:44;;;;;;;3.77;3.27;;;4.80;90.70;;;;;;4936584;29;20230;-86
2023/12/05 05:05:15;;;;;;;2.80;2.60;;;4.90;90.60;;;;;;4945363;29;20277;-84
2023/12/05 05:07:44;;;;;;;8.10;2.37;;;4.80;90.60;;;;;;4938589;29;20394;-83
2023/12/05 05:10:13;;;;;;;5.23;2.90;;;4.90;90.70;;;;;;4942549;29;20201;-83
2023/12/05 05:12:42;;;;;;;3.67;2.87;;;4.80;90.80;;;;;;4935736;29;20239;-82
2023/12/05 05:15:12;;;;;;;2.27;1.73;;;4.80;90.60;;;;;;4939624;29;20334;-83
2023/12/05 05:17:42;;;;;;;2.97;2.30;;;4.90;90.50;;;;;;4943632;28;20211;-86
2023/12/05 05:20:12;;;;;;;1.03;1.03;;;4.90;90.50;;;;;;4942914;29;20640;-84
2023/12/05 05:22:42;;;;;;;5.50;2.23;;;5.00;90.40;;;;;;4941020;29;20194;-81
2023/12/05 05:25:15;;;;;;;6.13;3.47;;;5.00;90.30;;;;;;4939344;29;20829;-84
2023/12/05 05:27:45;;;;;;;3.27;2.07;;;5.00;90.20;;;;;;4940297;29;20626;-83
2023/12/05 05:30:15;;;;;;;2.23;2.03;;;5.00;90.10;;;;;;4938886;29;20228;-84
2023/12/05 05:32:45;;;;;;;3.80;2.80;;;5.00;90.10;;;;;;4939239;29;20213;-82
2023/12/05 05:35:14;;;;;;;3.03;2.80;;;5.00;90.10;;;;;;4946042;29;20209;-84
2023/12/05 05:37:46;;;;;;;5.00;3.60;;;5.10;90.00;;;;;;4938756;29;20250;-84
2023/12/05 05:40:15;;;;;;;6.43;3.10;;;5.10;90.00;;;;;;4943543;29;20214;-85
2023/12/05 05:42:48;;;;;;;5.33;2.47;;;5.10;90.00;;;;;;4943288;29;20206;-83
2023/12/05 05:45:17;;;;;;;1.83;1.73;;;5.10;89.80;;;;;;4945988;29;20317;-84
2023/12/05 05:47:46;;;;;;;1.63;1.53;;;5.10;89.60;;;;;;4949296;29;20201;-84
2023/12/05 05:50:18;;;;;;;1.90;1.80;;;5.10;89.70;;;;;;4945300;29;20214;-83
2023/12/05 05:52:50;;;;;;;2.13;2.00;;;5.10;89.60;;;;;;4942625;28;20732;-85
2023/12/05 05:55:19;;;;;;;5.50;1.87;;;5.10;89.70;;;;;;4942883;29;20199;-84
2023/12/05 05:57:53;;;;;;;1.17;1.17;;;5.20;89.60;;;;;;4943002;29;20199;-83
2023/12/05 06:00:39;;;;;;;1.93;1.83;;;5.20;89.50;;;;;;4950828;29;20221;-83
2023/12/05 06:03:11;;;;;;;3.43;3.13;;;5.20;89.30;;;;;;4936074;29;20231;-83
2023/12/05 06:05:41;;;;;;;3.03;2.77;;;5.20;89.10;;;;;;4941869;29;20338;-82
2023/12/05 06:08:13;;;;;;;2.83;2.63;;;5.30;89.10;;;;;;4941112;29;20199;-82
2023/12/05 06:10:43;;;;;;;1.20;1.10;;;5.20;89.10;;;;;;4945787;29;20619;-83
2023/12/05 06:13:12;;;;;;;1.83;1.50;;;5.30;89.10;;;;;;4939403;28;20264;-84
2023/12/05 06:15:41;;;;;;;2.53;2.10;;;5.30;88.90;;;;;;4940371;29;20201;-83
2023/12/05 06:18:15;;;;;;;1.13;1.10;;;5.40;88.90;;;;;;4942652;29;20220;-83
2023/12/05 06:20:46;;;;;;;2.97;2.77;;;5.30;88.60;;;;;;4940965;29;20265;-85
2023/12/05 06:23:17;;;;;;;6.03;3.60;;;5.30;88.60;;;;;;4940019;29;20237;-83
2023/12/05 06:25:45;;;;;;;1.43;1.33;;;5.30;88.60;;;;;;4940968;29;20225;-82
2023/12/05 06:28:14;;;;;;;5.97;4.00;;;5.30;88.80;;;;;;4949802;29;20204;-83
2023/12/05 06:30:43;;;;;;;2.10;1.83;;;5.40;88.80;;;;;;4940937;29;20200;-82
2023/12/05 06:33:12;;;;;;;2.87;2.63;;;5.40;88.70;;;;;;4939539;29;20272;-82
2023/12/05 06:35:41;;;;;;;1.50;1.40;;;5.50;88.90;;;;;;4948414;29;20193;-84
2023/12/05 06:38:12;;;;;;;0.70;0.70;;;5.60;88.80;;;;;;4942838;29;20208;-84
2023/12/05 06:40:42;;;;;;;1.43;1.33;;;5.60;88.80;;;;;;4940614;29;20204;-86
2023/12/05 06:43:10;;;;;;;1.13;1.03;;;5.70;88.70;;;;;;4943074;29;20221;-81
2023/12/05 06:45:40;;;;;;;1.43;1.33;;;5.80;88.70;;;;;;4944297;29;20239;-84
2023/12/05 06:48:09;;;;;;;4.13;1.27;;;5.80;88.40;;;;;;4940077;29;20230;-81
2023/12/05 06:50:39;;;;;;;4.70;3.37;;;5.90;88.30;;;;;;4944500;29;20214;-83
2023/12/05 06:53:07;;;;;;;2.67;2.20;;;5.90;88.10;;;;;;4945101;29;20713;-84
2023/12/05 06:55:36;;;;;;;2.40;2.20;;;6.00;88.00;;;;;;4944833;29;20200;-83
2023/12/05 06:58:08;;;;;;;2.27;1.67;;;6.00;87.90;;;;;;4944656;29;20201;-84
2023/12/05 07:00:37;;;;;;;2.57;2.40;;;6.10;87.50;;;;;;4947685;28;20213;-84
2023/12/05 07:03:08;;;;;;;2.30;2.10;;;6.10;87.50;;;;;;4942372;28;20360;-82
2023/12/05 07:05:37;;;;;;;5.77;1.77;;;6.10;87.20;;;;;;4944739;29;20226;-83
2023/12/05 07:08:08;;;;;;;1.77;1.67;;;6.10;86.50;;;;;;4943649;29;20246;-84
2023/12/05 07:10:37;;;;;;;3.57;2.90;;;6.10;86.70;;;;;;4943163;29;20202;-83
2023/12/05 07:13:07;;;;;;;3.40;2.90;;;6.10;86.50;;;;;;4942757;29;20191;-85
2023/12/05 07:15:38;;;;;;;3.47;2.53;;;6.10;86.10;;;;;;4941413;29;20206;-81
2023/12/05 07:18:07;;;;;;;2.73;2.37;;;6.10;86.30;;;;;;4940921;29;20210;-84
2023/12/05 07:20:36;;;;;;;1.57;1.47;;;6.10;86.30;;;;;;4937695;29;20206;-81
2023/12/05 07:23:05;;;;;;;3.13;1.77;;;6.10;86.20;;;;;;4936313;29;20208;-82
2023/12/05 07:25:36;;;;;;;4.20;2.03;;;6.10;86.10;;;;;;4938587;29;20698;-84
2023/12/05 07:28:07;;;;;;;1.70;1.60;;;6.10;86.20;;;;;;4936297;29;20199;-81
2023/12/05 07:30:38;;;;;;;2.63;1.23;;;6.10;86.30;;;;;;4940644;29;20230;-83
2023/12/05 07:33:07;;;;;;;4.37;3.33;;;6.10;86.30;;;;;;4943859;29;20296;-82
2023/12/05 07:35:35;;;;;;;2.83;2.17;;;6.10;86.20;;;;;;4946189;29;20191;-84
2023/12/05 07:38:04;;;;;;;2.57;2.37;;;6.10;86.30;;;;;;4940173;29;20198;-83
2023/12/05 07:40:34;;;;;;;1.17;1.17;;;6.10;86.40;;;;;;4943876;29;20203;-83
2023/12/05 07:43:04;;;;;;;1.63;1.53;;;6.20;86.30;;;;;;4946576;29;20273;-82
2023/12/05 07:45:34;;;;;;;2.03;1.53;;;6.20;86.30;;;;;;4945314;28;20587;-84
2023/12/05 07:48:05;;;;;;;3.03;2.53;;;6.30;86.30;;;;;;4941704;29;20198;-84
2023/12/05 07:50:34;;;;;;;1.63;1.53;;;6.20;86.20;;;;;;4948733;29;20612;-84
2023/12/05 07:53:02;;;;;;;3.73;1.17;;;6.20;86.10;;;;;;4942710;29;20290;-84
2023/12/05 07:55:31;;;;;;;2.90;2.33;;;6.20;86.10;;;;;;4947400;28;20537;-84
2023/12/05 07:58:00;;;;;;;1.93;1.77;;;6.20;86.40;;;;;;4939818;28;20199;-86
2023/12/05 08:00:29;;;;;;;1.10;1.10;;;6.30;86.50;;;;;;4945847;29;20207;-86
2023/12/05 08:02:57;;;;;;;3.97;3.57;;;6.30;86.20;;;;;;4943879;29;20226;-84
2023/12/05 08:05:31;;;;;;;3.50;2.78;;;6.30;85.90;;;;;;4951397;29;20469;-83
2023/12/05 08:08:00;;;;;;;3.67;3.33;;;6.30;85.90;;;;;;4944592;29;20683;-85
2023/12/05 08:10:30;;;;;;;0.90;0.90;;;6.30;86.10;;;;;;4941656;29;20246;-84
2023/12/05 08:12:59;;;;;;;1.73;1.63;;;6.20;85.80;;;;;;4940960;29;20237;-84
2023/12/05 08:15:36;;;;;;;3.17;2.33;;;6.30;86.00;;;;;;4944430;29;20195;-93
2023/12/05 08:18:06;;;;;;;1.57;1.47;;;6.30;86.10;;;;;;4940111;28;20551;-92
2023/12/05 08:20:41;;;;;;;0.60;0.60;;;6.30;86.20;;;;;;4939999;29;20286;-86
2023/12/05 08:23:11;;;;;;;5.20;2.97;;;6.30;86.10;;;;;;4944616;29;20231;-83
2023/12/05 08:25:40;;;;;;;4.67;2.77;;;6.40;86.20;;;;;;4936593;29;20232;-85
2023/12/05 08:28:09;;;;;;;2.10;2.00;;;6.40;86.10;;;;;;4945382;29;20203;-85
2023/12/05 08:30:39;;;;;;;2.93;1.67;;;6.40;86.30;;;;;;4937458;28;20194;-84
2023/12/05 08:33:10;;;;;;;4.70;3.13;;;6.40;86.20;;;;;;4945558;29;20194;-85
2023/12/05 08:35:41;;;;;;;3.87;2.20;;;6.40;86.20;;;;;;4952318;29;20201;-84
2023/12/05 08:38:11;;;;;;;3.27;2.63;;;6.50;86.20;;;;;;4943671;29;20767;-85
2023/12/05 08:40:40;;;;;;;1.67;1.57;;;6.50;86.10;;;;;;4939360;29;20199;-85
2023/12/05 08:43:11;;;;;;;3.33;3.03;;;6.60;86.10;;;;;;4950341;29;20203;-86
2023/12/05 08:45:40;;;;;;;3.73;2.67;;;6.70;86.00;;;;;;4939814;28;20314;-86
2023/12/05 08:48:11;;;;;;;3.37;1.87;;;6.70;85.70;;;;;;4953104;29;20282;-85
2023/12/05 08:50:43;;;;;;;2.30;1.43;;;6.70;85.50;;;;;;4943095;29;20195;-82
2023/12/05 08:53:18;;;;;;;1.87;1.73;;;6.80;85.60;;;;;;4941962;29;20277;-84
2023/12/05 08:55:54;;;;;;;3.80;2.20;;;6.90;85.70;;;;;;4943762;28;20575;-83
2023/12/05 08:58:23;;;;;;;1.60;1.50;;;6.90;85.50;;;;;;4940124;29;20708;-85
2023/12/05 09:00:54;;;;;;;2.63;2.27;;;6.90;85.40;;;;;;4944324;29;20654;-84
2023/12/05 09:03:26;;;;;;;2.67;2.47;;;7.00;85.20;;;;;;4941913;29;20219;-86
2023/12/05 09:05:58;;;;;;;1.87;1.77;;;7.00;84.90;;;;;;4943358;29;20223;-85
2023/12/05 09:08:27;;;;;;;2.77;1.67;;;7.10;85.00;;;;;;4948547;29;20207;-85
2023/12/05 09:10:57;;;;;;;7.83;2.20;;;7.10;84.80;;;;;;4943632;29;20175;-84
2023/12/05 09:13:27;;;;;;;2.60;1.20;;;7.20;84.90;;;;;;4945259;29;20205;-86
2023/12/05 09:15:57;;;;;;;5.03;3.30;;;7.20;84.80;;;;;;4942712;28;20208;-86
2023/12/05 09:18:27;;;;;;;4.97;2.17;;;7.20;84.50;;;;;;4943093;29;20262;-82
2023/12/05 09:21:02;;;;;;;1.90;1.70;;;7.20;84.50;;;;;;4943389;29;20205;-89
2023/12/05 09:23:34;;;;;;;2.57;2.13;;;7.30;84.60;;;;;;4952525;29;20216;-88
2023/12/05 09:26:05;;;;;;;1.93;1.80;;;7.30;84.80;;;;;;4948454;29;20270;-88
2023/12/05 09:28:34;;;;;;;3.57;2.83;;;7.30;85.20;;;;;;4957903;29;20207;-88
2023/12/05 09:31:09;;;;;;;2.60;1.97;;;7.40;85.20;;;;;;4951524;29;20218;-87
2023/12/05 09:33:38;;;;;;;3.63;2.70;;;7.40;85.00;;;;;;4947818;29;20191;-88
2023/12/05 09:36:10;;;;;;;3.17;2.87;;;7.50;84.90;;;;;;5007066;23;20594;-90
2023/12/05 09:38:40;;;;;;;5.67;2.07;;;7.50;84.70;;;;;;4932459;29;20207;-90
2023/12/05 09:41:14;;;;;;;10.67;4.67;;;7.60;84.90;;;;;;4924524;29;20216;-88
2023/12/05 09:43:46;;;;;;;2.30;2.07;;;7.60;84.50;;;;;;4922698;29;20227;-88
2023/12/05 09:46:21;;;;;;;2.30;1.27;;;7.60;84.40;;;;;;4926798;29;20710;-90
2023/12/05 09:49:01;;;;;;;4.23;1.87;;;7.70;84.40;;;;;;4924404;29;20649;-89
2023/12/05 09:51:37;;;;;;;1.43;1.33;;;7.70;84.30;;;;;;4929057;29;20200;-91
2023/12/05 09:54:07;;;;;;;2.17;2.00;;;7.80;85.10;;;;;;4927759;29;20191;-88
2023/12/05 09:56:38;;;;;;;8.23;2.03;;;7.80;84.30;;;;;;4909458;29;20192;-91
2023/12/05 09:59:09;;;;;;;4.43;3.30;;;7.90;84.20;;;;;;4909225;29;20195;-89
2023/12/05 10:01:42;;;;;;;3.63;3.33;;;7.90;84.10;;;;;;4926311;29;20196;-89
2023/12/05 10:04:18;;;;;;;1.27;1.00;;;8.00;84.10;;;;;;4920745;29;20209;-90
2023/12/05 10:06:50;;;;;;;2.27;1.93;;;8.10;83.90;;;;;;4909114;29;20266;-91
2023/12/05 10:09:24;;;;;;;2.47;1.83;;;8.20;84.00;;;;;;4923433;29;20247;-87
2023/12/05 10:11:55;;;;;;;2.77;2.57;;;8.40;84.10;;;;;;4922495;29;20229;-85
2023/12/05 10:14:26;;;;;;;0.70;0.70;;;8.40;83.80;;;;;;4917454;29;20232;-83
2023/12/05 10:16:57;;;;;;;7.63;3.50;;;8.50;83.70;;;;;;4895424;29;20210;-77
2023/12/05 10:19:27;;;;;;;3.77;3.23;;;8.60;83.30;;;;;;4911492;29;20200;-81
2023/12/05 10:21:59;;;;;;;8.47;3.60;;;8.60;82.70;;;;;;4920113;29;20199;-85
2023/12/05 10:24:39;;;;;;;2.93;2.50;;;8.60;82.80;;;;;;4921066;29;20204;-84
2023/12/05 10:27:09;;;;;;;2.00;1.73;;;8.60;82.50;;;;;;4914513;29;20223;-84
2023/12/05 10:29:40;;;;;;;1.57;1.23;;;8.70;82.70;;;;;;4913603;29;20715;-84
2023/12/05 10:32:11;;;;;;;3.53;2.60;;;8.80;82.70;;;;;;4915285;29;20210;-84
2023/12/05 10:34:51;;;;;;;2.17;1.67;;;8.90;82.50;;;;;;4908707;29;20189;-88
2023/12/05 10:37:29;;;;;;;4.83;2.80;;;9.10;82.70;;;;;;4921686;29;20258;-83
2023/12/05 10:40:00;;;;;;;2.73;1.73;;;9.10;82.50;;;;;;4903889;29;20236;-85
2023/12/05 10:42:31;;;;;;;3.87;2.10;;;9.10;82.20;;;;;;4901955;29;20284;-85
2023/12/05 10:45:06;;;;;;;2.63;2.17;;;9.20;81.90;;;;;;4914066;29;20196;-86
2023/12/05 10:47:35;;;;;;;3.03;1.67;;;9.20;82.00;;;;;;4927237;29;20273;-85
2023/12/05 10:50:05;;;;;;;9.73;2.57;;;9.30;82.10;;;;;;4918830;29;20200;-84
2023/12/05 10:52:35;;;;;;;2.70;2.37;;;9.30;81.90;;;;;;4922911;29;20196;-83
2023/12/05 10:55:08;;;;;;;2.80;2.50;;;9.40;81.70;;;;;;4930547;29;20196;-89
2023/12/05 10:57:37;;;;;;;1.70;1.60;;;9.40;81.30;;;;;;4920513;29;20193;-87
2023/12/05 11:00:09;;;;;;;5.00;2.37;;;9.50;81.20;;;;;;4917924;29;20199;-85
2023/12/05 11:02:39;;;;;;;2.00;1.90;;;9.50;81.10;;;;;;4922042;29;20200;-85
2023/12/05 11:05:10;;;;;;;8.63;2.20;;;9.40;81.10;;;;;;4913300;29;20234;-85
2023/12/05 11:07:41;;;;;;;4.07;1.93;;;9.40;81.10;;;;;;4913693;29;20219;-86
2023/12/05 11:10:10;;;;;;;2.10;1.93;;;9.50;81.20;;;;;;4916004;29;20211;-86
2023/12/05 11:12:43;;;;;;;2.50;1.90;;;9.40;81.10;;;;;;4914537;29;20536;-85
2023/12/05 11:15:17;;;;;;;3.87;3.53;;;9.40;81.10;;;;;;4918774;29;20220;-85
2023/12/05 11:17:50;;;;;;;2.20;2.07;;;9.40;81.10;;;;;;4916754;29;20204;-84
2023/12/05 11:20:30;;;;;;;2.50;1.77;;;9.40;81.20;;;;;;4897713;29;20279;-85
2023/12/05 11:23:17;;;;;;;14.13;3.47;;;9.40;81.20;;;;;;4917473;29;20263;-85
2023/12/05 11:25:54;;;;;;;2.43;2.07;;;9.40;81.20;;;;;;4919741;29;20244;-84
2023/12/05 11:28:43;;;;;;;2.80;1.73;;;9.40;81.20;;;;;;4911612;29;20711;-85
2023/12/05 11:31:23;;;;;;;3.40;2.13;;;9.40;81.30;;;;;;4915310;29;20204;-84
2023/12/05 11:34:24;;;;;;;1.23;1.17;;;9.40;81.20;;;;;;4916818;29;20207;-91
2023/12/05 11:37:09;;;;;;;10.63;4.33;;;9.30;81.60;;;;;;4918858;29;20235;-84
2023/12/05 11:39:40;;;;;;;3.77;3.00;;;9.30;81.50;;;;;;4908823;29;20198;-84
2023/12/05 11:42:14;;;;;;;18.20;2.03;;;9.30;81.40;;;;;;4914417;29;20204;-86
2023/12/05 11:44:43;;;;;;;3.70;2.60;;;9.20;81.60;;;;;;4913634;29;20199;-85
2023/12/05 11:47:14;;;;;;;1.70;1.60;;;9.20;81.50;;;;;;4919497;29;20315;-84
2023/12/05 11:49:53;;;;;;;4.90;3.73;;;9.20;81.60;;;;;;4916633;29;20210;-87
2023/12/05 11:52:23;;;;;;;2.90;2.17;;;9.20;81.70;;;;;;4919080;29;20194;-82
2023/12/05 11:54:53;;;;;;;2.83;2.60;;;9.10;81.90;;;;;;4916959;29;20207;-87
2023/12/05 11:57:24;;;;;;;4.47;3.33;;;9.10;82.00;;;;;;4916397;29;20211;-85
2023/12/05 11:59:57;;;;;;;3.20;2.03;;;9.10;81.90;;;;;;4919352;29;20230;-85
2023/12/05 12:02:44;;;;;;;2.07;1.77;;;9.20;82.00;;;;;;4908957;29;20200;-85
2023/12/05 12:05:14;;;;;;;4.83;2.27;;;9.10;82.20;;;;;;4912222;29;20204;-84
2023/12/05 12:07:56;;;;;;;3.10;1.80;;;9.10;82.10;;;;;;4916040;29;20871;-85
2023/12/05 12:10:27;;;;;;;4.93;3.30;;;9.10;82.70;;;;;;4912695;29;20242;-83
2023/12/05 12:13:00;;;;;;;1.83;1.73;;;9.10;82.80;;;;;;4917941;29;20656;-87
2023/12/05 12:15:36;;;;;;;5.00;3.23;;;9.10;82.60;;;;;;4914927;29;20600;-84
2023/12/05 12:18:06;;;;;;;7.30;2.50;;;9.10;82.70;;;;;;4912897;29;20298;-85
2023/12/05 12:20:38;;;;;;;4.37;2.80;;;9.10;82.50;;;;;;4915437;29;20227;-84
2023/12/05 12:23:08;;;;;;;1.60;1.50;;;9.20;82.50;;;;;;4915851;29;20213;-85
2023/12/05 12:25:50;;;;;;;3.37;2.57;;;9.20;82.60;;;;;;4924818;29;20188;-85
2023/12/05 12:28:28;;;;;;;2.37;2.17;;;9.20;82.30;;;;;;4919421;29;20230;-86
2023/12/05 12:30:58;;;;;;;4.90;2.53;;;9.30;82.30;;;;;;4923156;29;20196;-84
2023/12/05 12:33:37;;;;;;;2.23;2.07;;;9.20;82.50;;;;;;4921900;29;20275;-85
2023/12/05 12:36:07;;;;;;;4.17;3.13;;;9.20;82.50;;;;;;4920538;29;20335;-83
2023/12/05 12:38:37;;;;;;;9.43;2.23;;;9.20;82.70;;;;;;4920503;29;20206;-85
2023/12/05 12:41:10;;;;;;;3.03;2.83;;;9.30;82.60;;;;;;4919340;29;20743;-86
2023/12/05 12:43:40;;;;;;;2.90;2.70;;;9.30;82.50;;;;;;4915815;29;20687;-82
2023/12/05 12:46:10;;;;;;;4.43;1.63;;;9.30;82.20;;;;;;4920792;29;20199;-84
2023/12/05 12:48:42;;;;;;;3.47;2.30;;;9.30;82.30;;;;;;4901164;29;20215;-84
2023/12/05 12:51:12;;;;;;;2.40;1.47;;;9.30;82.30;;;;;;4919345;29;20676;-85
2023/12/05 12:53:41;;;;;;;1.50;1.40;;;9.30;82.40;;;;;;4930038;29;20201;-84
2023/12/05 12:56:14;;;;;;;6.47;3.90;;;9.30;82.60;;;;;;4918999;29;20354;-85
2023/12/05 12:58:47;;;;;;;6.73;3.87;;;9.20;82.50;;;;;;4915681;29;20199;-84
2023/12/05 13:01:20;;;;;;;2.80;1.87;;;9.30;82.50;;;;;;4913543;29;20220;-84
2023/12/05 13:03:55;;;;;;;1.73;1.63;;;9.30;82.60;;;;;;4918931;29;20210;-84
2023/12/05 13:06:24;;;;;;;2.30;2.10;;;9.30;82.80;;;;;;4901962;29;20196;-83
2023/12/05 13:08:53;;;;;;;5.07;3.70;;;9.20;82.70;;;;;;4919670;29;20219;-83
2023/12/05 13:11:25;;;;;;;1.97;1.87;;;9.30;82.70;;;;;;4913483;29;20339;-84
2023/12/05 13:13:54;;;;;;;4.97;2.03;;;9.30;82.70;;;;;;4919851;29;20199;-84
2023/12/05 13:16:27;;;;;;;3.83;2.90;;;9.30;83.00;;;;;;4912442;29;20211;-84
2023/12/05 13:18:55;;;;;;;4.73;3.17;;;9.20;83.10;;;;;;4913268;29;20572;-83